• Join FlightAware (Why Join?)
  • Login
  • US Flag 
11:05AM EDT


 

Airport Tracker/Info


-or-


 

Live Flight TrackerFlight Track Log ✈ SWA3313 ✈ 24-Apr-2013 ✈ KBWI - KCLT

Flight Track Log - Related Links

Times and Time Zones

All times are in EDT time to prevent confusion due to time zone crossing. See the SWA3313 flight status page for this flight to view local times or setup timezone preferences in your user account.

Time Position Orientation Groundspeed Altitude Reporting Facility
EDT Latitude Longitude Course Direction KTS MPH feet Rate Location/Type
09:14PM 38.0037 -78.0000 222° Southwest  Level Estimated
09:15PM 37.9291 -78.0827 221° Southwest  Level Estimated
09:16PM 37.8545 -78.1653 221° Southwest  Level Estimated
09:17PM 37.7815 -78.2458 228° Southwest  Level Estimated
09:18PM 37.7272 -78.3481 236° Southwest  Level FlightAware Approximate
09:19PM 37.6729 -78.4501 236° Southwest  Level FlightAware Approximate
09:19PM 37.9025 -78.3183 236° Southwest 381 438 36,000  Level Washington Center
09:20PM 37.6184 -78.5520 236° Southwest  Level FlightAware Approximate
09:20PM 37.8356 -78.4183 230° Southwest 381 438 36,000  Level Washington Center
09:21PM 37.5638 -78.6538 236° Southwest  Level FlightAware Approximate
09:21PM 37.7664 -78.5131 227° Southwest 375 432 36,000  Level Washington Center
09:22PM 37.5089 -78.7559 236° Southwest  Level FlightAware Approximate
09:22PM 37.6928 -78.6231 230° Southwest 375 432 36,000  Level Washington Center
09:23PM 37.4533 -78.8590 236° Southwest  Level FlightAware Approximate
09:23PM 37.6217 -78.7172 226° Southwest 375 432 36,000  Level Washington Center
09:24PM 37.3976 -78.9620 236° Southwest  Level FlightAware Approximate
09:24PM 37.5542 -78.8167 229° Southwest 375 432 36,000  Level Washington Center
09:25PM 37.4828 -78.9156 228° Southwest 375 432 36,000  Level Washington Center
09:26PM 37.4197 -79.0044 228° Southwest 375 432 36,000  Level Washington Center
09:27PM 37.3500 -79.1033 228° Southwest 375 432 36,000  Level Washington Center
09:29PM 37.1944 -79.2864 223° Southwest 381 438 36,000  Level Washington Center
09:30PM 37.1044 -79.3575 212° Southwest 386 444 36,000  Level Washington Center
09:31PM 37.0058 -79.4411 214° Southwest 391 450 36,000  Level Washington Center
09:32PM 36.9158 -79.5147 213° Southwest 391 450 36,000  Level Washington Center
09:33PM 36.8281 -79.5881 214° Southwest 391 450 36,000 -960 Level Washington Center
09:34PM 36.7400 -79.6614 214° Southwest 391 450 34,100 -1,860 Descending Washington Center
09:35PM 36.6583 -79.7269 213° Southwest 391 450 32,300 -2,460 Descending Washington Center
09:36PM 36.5703 -79.7997 214° Southwest 391 450 29,200 -2,940 Descending Washington Center
09:37PM 36.4822 -79.8725 214° Southwest 391 450 26,500 -2,700 Descending Washington Center
09:38PM 36.3781 -79.9489 211° Southwest 369 425 23,400 -2,100 Descending Atlanta Center
09:39PM 36.2928 -80.0228 215° Southwest 369 425 22,000 -900 Descending Atlanta Center
09:40PM 36.2158 -80.0858 213° Southwest 356 410 21,700 -720 Descending Atlanta Center
09:41PM 36.1347 -80.1592 216° Southwest 341 392 20,600 -1,440 Descending Atlanta Center
09:42PM 36.0594 -80.2219 214° Southwest 336 387 18,900 -1,680 Descending Atlanta Center
09:43PM 35.9883 -80.2842 215° Southwest 326 375 17,300 -1,860 Descending Atlanta Center
09:44PM 35.9600 -80.3114 218° Southwest 307 353 16,400 -1,980 Descending Atlanta Center
09:44PM 35.9233 -80.3436 215° Southwest 304 350 15,400 -1,800 Descending Atlanta Center
09:45PM 35.8500 -80.4033 213° Southwest 296 341 13,500 -1,620 Descending Atlanta Center
09:46PM 35.7931 -80.4494 213° Southwest 298 343 12,200 -1,260 Descending Atlanta Center
09:47PM 35.7239 -80.5089 215° Southwest 288 331 11,000 -1,500 Descending Atlanta Center
09:48PM 35.6603 -80.5525 209° Southwest 269 310 9,300 -1,680 Descending Atlanta Center
09:49PM 35.5969 -80.5958 209° Southwest 269 310 7,700 -1,620 Descending Atlanta Center
09:49PM 35.5806 -80.6094 214° Southwest 265 305 7,300 -1,440 Descending Atlanta Center
09:50PM 35.5336 -80.6419 209° Southwest 264 304 6,300 -1,320 Descending Atlanta Center
09:50PM 35.5192 -80.6528 211° Southwest 255 293 6,000 -300 Descending Atlanta Center
09:51PM 35.4722 -80.6853 209° Southwest 256 295 6,000  Level Atlanta Center
09:51PM 35.4600 -80.6936 209° Southwest 247 284 6,000 -1,200 Level Atlanta Center
09:52PM 35.4147 -80.7258 210° Southwest 256 295 4,800 -1,500 Descending Atlanta Center
09:52PM 35.3983 -80.7342 203° Southwest 248 285 4,500 -840 Descending Atlanta Center
09:53PM 35.3556 -80.7664 212° Southwest 256 295 4,000 -480 Descending Atlanta Center
09:54PM 35.3389 -80.7775 209° Southwest 231 266 4,000 -720 Level Atlanta Center
09:55PM 35.3008 -80.8297 228° Southwest 165 190 3,000 -900 Descending Atlanta Center
09:56PM 35.2744 -80.8614 224° Southwest 123 142 2,200 -660 Descending Atlanta Center
09:57PM 35.2542 -80.8875 226° Southwest 101 116 1,700 -600 Descending Atlanta Center
09:58PM 35.2342 -80.9189 232° Southwest 114 131 1,100 -600 Descending Atlanta Center
10:00PM 35.2137 -80.9491 176° South  Level Estimated